sensor_id;sensor_type;location;lat;lon;timestamp;P1;durP1;ratioP1;P2;durP2;ratioP2
8268;SDS011;4174;48.304;16.364;2023-01-16T00:02:40;5.10;;;1.40;;
8268;SDS011;4174;48.304;16.364;2023-01-16T00:08:44;4.20;;;1.30;;
8268;SDS011;4174;48.304;16.364;2023-01-16T00:14:47;4.50;;;1.30;;
8268;SDS011;4174;48.304;16.364;2023-01-16T00:20:52;4.10;;;1.20;;
8268;SDS011;4174;48.304;16.364;2023-01-16T00:26:55;4.35;;;1.33;;
8268;SDS011;4174;48.304;16.364;2023-01-16T00:32:59;3.83;;;1.10;;
8268;SDS011;4174;48.304;16.364;2023-01-16T00:39:02;4.10;;;1.20;;
8268;SDS011;4174;48.304;16.364;2023-01-16T00:45:06;3.90;;;1.10;;
8268;SDS011;4174;48.304;16.364;2023-01-16T00:51:11;3.63;;;0.80;;
8268;SDS011;4174;48.304;16.364;2023-01-16T00:57:15;3.40;;;0.80;;
8268;SDS011;4174;48.304;16.364;2023-01-16T01:03:19;3.70;;;0.80;;
8268;SDS011;4174;48.304;16.364;2023-01-16T01:09:22;3.70;;;0.80;;
8268;SDS011;4174;48.304;16.364;2023-01-16T01:15:25;3.30;;;0.70;;
8268;SDS011;4174;48.304;16.364;2023-01-16T01:21:29;3.83;;;0.80;;
8268;SDS011;4174;48.304;16.364;2023-01-16T01:27:33;3.37;;;0.70;;
8268;SDS011;4174;48.304;16.364;2023-01-16T01:33:37;3.72;;;0.90;;
8268;SDS011;4174;48.304;16.364;2023-01-16T01:39:40;5.50;;;0.82;;
8268;SDS011;4174;48.304;16.364;2023-01-16T01:45:45;3.90;;;0.90;;
8268;SDS011;4174;48.304;16.364;2023-01-16T01:51:55;3.90;;;0.90;;
8268;SDS011;4174;48.304;16.364;2023-01-16T01:57:59;4.20;;;0.90;;
8268;SDS011;4174;48.304;16.364;2023-01-16T02:04:02;4.20;;;0.97;;
8268;SDS011;4174;48.304;16.364;2023-01-16T02:10:10;4.50;;;1.10;;
8268;SDS011;4174;48.304;16.364;2023-01-16T02:16:14;4.10;;;1.10;;
8268;SDS011;4174;48.304;16.364;2023-01-16T02:35:24;4.10;;;0.98;;
8268;SDS011;4174;48.304;16.364;2023-01-16T02:41:34;4.50;;;0.93;;
8268;SDS011;4174;48.304;16.364;2023-01-16T02:48:06;3.97;;;1.17;;
8268;SDS011;4174;48.304;16.364;2023-01-16T02:54:16;4.10;;;1.10;;
8268;SDS011;4174;48.304;16.364;2023-01-16T03:00:18;4.43;;;1.00;;
8268;SDS011;4174;48.304;16.364;2023-01-16T03:06:26;4.63;;;1.10;;
8268;SDS011;4174;48.304;16.364;2023-01-16T03:13:12;3.60;;;0.90;;
8268;SDS011;4174;48.304;16.364;2023-01-16T03:19:05;3.90;;;1.00;;
8268;SDS011;4174;48.304;16.364;2023-01-16T03:25:34;4.10;;;1.10;;
8268;SDS011;4174;48.304;16.364;2023-01-16T03:31:42;4.53;;;1.07;;
8268;SDS011;4174;48.304;16.364;2023-01-16T03:37:46;3.53;;;0.90;;
8268;SDS011;4174;48.304;16.364;2023-01-16T03:43:53;4.20;;;1.10;;
8268;SDS011;4174;48.304;16.364;2023-01-16T03:49:57;5.10;;;1.30;;
8268;SDS011;4174;48.304;16.364;2023-01-16T03:56:05;5.37;;;1.40;;
8268;SDS011;4174;48.304;16.364;2023-01-16T04:02:16;4.77;;;1.33;;
8268;SDS011;4174;48.304;16.364;2023-01-16T04:08:27;3.33;;;0.80;;
8268;SDS011;4174;48.304;16.364;2023-01-16T04:14:30;3.90;;;1.00;;
8268;SDS011;4174;48.304;16.364;2023-01-16T04:20:32;4.60;;;1.02;;
8268;SDS011;4174;48.304;16.364;2023-01-16T04:26:35;4.03;;;0.90;;
8268;SDS011;4174;48.304;16.364;2023-01-16T04:32:39;3.37;;;0.70;;
8268;SDS011;4174;48.304;16.364;2023-01-16T04:38:42;3.97;;;0.73;;
8268;SDS011;4174;48.304;16.364;2023-01-16T04:44:46;3.57;;;0.70;;
8268;SDS011;4174;48.304;16.364;2023-01-16T04:50:49;4.20;;;0.63;;
8268;SDS011;4174;48.304;16.364;2023-01-16T04:56:52;3.70;;;0.70;;
8268;SDS011;4174;48.304;16.364;2023-01-16T05:02:56;3.83;;;0.70;;
8268;SDS011;4174;48.304;16.364;2023-01-16T05:09:00;4.07;;;0.77;;
8268;SDS011;4174;48.304;16.364;2023-01-16T05:15:04;4.00;;;0.80;;
8268;SDS011;4174;48.304;16.364;2023-01-16T05:21:09;3.33;;;0.80;;
8268;SDS011;4174;48.304;16.364;2023-01-16T05:27:12;3.93;;;0.90;;
8268;SDS011;4174;48.304;16.364;2023-01-16T05:33:16;3.20;;;0.63;;
8268;SDS011;4174;48.304;16.364;2023-01-16T05:39:19;4.47;;;0.60;;
8268;SDS011;4174;48.304;16.364;2023-01-16T05:45:22;3.40;;;0.70;;
8268;SDS011;4174;48.304;16.364;2023-01-16T05:51:26;4.25;;;0.90;;
8268;SDS011;4174;48.304;16.364;2023-01-16T05:57:30;3.53;;;0.80;;
8268;SDS011;4174;48.304;16.364;2023-01-16T06:03:34;3.90;;;0.90;;
8268;SDS011;4174;48.304;16.364;2023-01-16T06:09:37;3.83;;;0.80;;
8268;SDS011;4174;48.304;16.364;2023-01-16T06:15:41;4.12;;;0.90;;
8268;SDS011;4174;48.304;16.364;2023-01-16T06:21:43;5.82;;;1.15;;
8268;SDS011;4174;48.304;16.364;2023-01-16T06:27:47;5.20;;;1.40;;
8268;SDS011;4174;48.304;16.364;2023-01-16T06:33:50;5.30;;;1.57;;
8268;SDS011;4174;48.304;16.364;2023-01-16T06:39:53;5.53;;;1.70;;
8268;SDS011;4174;48.304;16.364;2023-01-16T06:45:58;7.33;;;2.47;;
8268;SDS011;4174;48.304;16.364;2023-01-16T06:52:01;5.05;;;1.08;;
8268;SDS011;4174;48.304;16.364;2023-01-16T06:58:06;4.53;;;0.77;;
8268;SDS011;4174;48.304;16.364;2023-01-16T07:04:09;4.07;;;0.90;;
8268;SDS011;4174;48.304;16.364;2023-01-16T07:10:13;3.45;;;0.75;;
8268;SDS011;4174;48.304;16.364;2023-01-16T07:16:19;5.18;;;1.12;;
8268;SDS011;4174;48.304;16.364;2023-01-16T07:22:28;4.43;;;1.00;;
8268;SDS011;4174;48.304;16.364;2023-01-16T07:28:36;4.68;;;1.10;;
8268;SDS011;4174;48.304;16.364;2023-01-16T07:34:39;4.23;;;1.03;;
8268;SDS011;4174;48.304;16.364;2023-01-16T07:40:43;4.37;;;0.80;;
8268;SDS011;4174;48.304;16.364;2023-01-16T07:46:48;3.53;;;0.80;;
8268;SDS011;4174;48.304;16.364;2023-01-16T07:52:52;3.92;;;0.80;;
8268;SDS011;4174;48.304;16.364;2023-01-16T07:58:56;3.55;;;0.80;;
8268;SDS011;4174;48.304;16.364;2023-01-16T08:04:59;5.03;;;0.90;;
8268;SDS011;4174;48.304;16.364;2023-01-16T08:11:03;3.73;;;0.80;;
8268;SDS011;4174;48.304;16.364;2023-01-16T08:17:22;5.80;;;1.60;;
8268;SDS011;4174;48.304;16.364;2023-01-16T08:23:27;4.70;;;1.10;;
8268;SDS011;4174;48.304;16.364;2023-01-16T08:29:31;5.57;;;1.30;;
8268;SDS011;4174;48.304;16.364;2023-01-16T08:35:36;6.30;;;1.40;;
8268;SDS011;4174;48.304;16.364;2023-01-16T08:41:40;4.53;;;0.82;;
8268;SDS011;4174;48.304;16.364;2023-01-16T08:47:49;5.28;;;1.02;;
8268;SDS011;4174;48.304;16.364;2023-01-16T08:53:58;5.53;;;1.10;;
8268;SDS011;4174;48.304;16.364;2023-01-16T09:00:02;4.20;;;1.03;;
8268;SDS011;4174;48.304;16.364;2023-01-16T09:06:07;5.43;;;1.00;;
8268;SDS011;4174;48.304;16.364;2023-01-16T09:12:11;3.50;;;0.70;;
8268;SDS011;4174;48.304;16.364;2023-01-16T09:18:19;4.53;;;0.85;;
8268;SDS011;4174;48.304;16.364;2023-01-16T09:24:23;3.87;;;0.80;;
8268;SDS011;4174;48.304;16.364;2023-01-16T09:30:26;3.30;;;0.60;;
8268;SDS011;4174;48.304;16.364;2023-01-16T09:36:29;4.33;;;0.80;;
8268;SDS011;4174;48.304;16.364;2023-01-16T09:49:05;3.45;;;0.60;;
8268;SDS011;4174;48.304;16.364;2023-01-16T09:55:32;3.40;;;0.80;;
8268;SDS011;4174;48.304;16.364;2023-01-16T10:01:51;3.95;;;0.90;;
8268;SDS011;4174;48.304;16.364;2023-01-16T10:07:55;4.70;;;1.00;;
8268;SDS011;4174;48.304;16.364;2023-01-16T10:14:05;5.27;;;1.00;;
8268;SDS011;4174;48.304;16.364;2023-01-16T10:20:25;3.57;;;0.77;;
8268;SDS011;4174;48.304;16.364;2023-01-16T10:26:29;3.90;;;0.87;;
8268;SDS011;4174;48.304;16.364;2023-01-16T10:32:33;4.75;;;0.80;;
8268;SDS011;4174;48.304;16.364;2023-01-16T10:38:40;3.40;;;0.60;;
8268;SDS011;4174;48.304;16.364;2023-01-16T10:44:50;3.20;;;0.70;;
8268;SDS011;4174;48.304;16.364;2023-01-16T10:50:57;3.47;;;0.70;;
8268;SDS011;4174;48.304;16.364;2023-01-16T10:57:00;2.87;;;0.60;;
8268;SDS011;4174;48.304;16.364;2023-01-16T11:03:27;3.77;;;0.70;;
8268;SDS011;4174;48.304;16.364;2023-01-16T11:09:29;3.43;;;0.80;;
8268;SDS011;4174;48.304;16.364;2023-01-16T11:15:33;3.22;;;0.90;;
8268;SDS011;4174;48.304;16.364;2023-01-16T11:21:42;3.73;;;0.70;;
8268;SDS011;4174;48.304;16.364;2023-01-16T11:27:45;3.17;;;0.70;;
8268;SDS011;4174;48.304;16.364;2023-01-16T11:33:50;3.47;;;0.77;;
8268;SDS011;4174;48.304;16.364;2023-01-16T11:39:52;3.67;;;0.80;;
8268;SDS011;4174;48.304;16.364;2023-01-16T11:45:56;3.72;;;0.80;;
8268;SDS011;4174;48.304;16.364;2023-01-16T11:52:04;4.43;;;0.90;;
8268;SDS011;4174;48.304;16.364;2023-01-16T12:04:22;4.87;;;1.40;;
8268;SDS011;4174;48.304;16.364;2023-01-16T12:23:19;6.35;;;2.08;;
8268;SDS011;4174;48.304;16.364;2023-01-16T12:29:28;7.30;;;2.25;;
8268;SDS011;4174;48.304;16.364;2023-01-16T12:35:33;5.75;;;2.10;;
8268;SDS011;4174;48.304;16.364;2023-01-16T12:41:52;5.97;;;2.40;;
8268;SDS011;4174;48.304;16.364;2023-01-16T12:48:12;5.33;;;1.70;;
8268;SDS011;4174;48.304;16.364;2023-01-16T12:54:27;4.90;;;1.80;;
8268;SDS011;4174;48.304;16.364;2023-01-16T13:00:36;5.90;;;1.80;;
8268;SDS011;4174;48.304;16.364;2023-01-16T13:06:40;5.27;;;1.23;;
8268;SDS011;4174;48.304;16.364;2023-01-16T13:12:46;3.97;;;0.90;;
8268;SDS011;4174;48.304;16.364;2023-01-16T13:18:56;5.13;;;1.43;;
8268;SDS011;4174;48.304;16.364;2023-01-16T13:25:02;6.05;;;1.20;;
8268;SDS011;4174;48.304;16.364;2023-01-16T13:31:04;4.25;;;1.00;;
8268;SDS011;4174;48.304;16.364;2023-01-16T13:43:48;4.75;;;1.23;;
8268;SDS011;4174;48.304;16.364;2023-01-16T13:50:06;4.72;;;1.58;;
8268;SDS011;4174;48.304;16.364;2023-01-16T13:56:20;4.72;;;1.30;;
8268;SDS011;4174;48.304;16.364;2023-01-16T14:02:23;5.57;;;1.40;;
8268;SDS011;4174;48.304;16.364;2023-01-16T14:15:09;4.72;;;1.20;;
8268;SDS011;4174;48.304;16.364;2023-01-16T14:21:24;4.53;;;1.20;;
8268;SDS011;4174;48.304;16.364;2023-01-16T14:28:00;4.90;;;1.63;;
8268;SDS011;4174;48.304;16.364;2023-01-16T14:34:09;5.00;;;1.40;;
8268;SDS011;4174;48.304;16.364;2023-01-16T14:46:30;5.47;;;1.50;;
8268;SDS011;4174;48.304;16.364;2023-01-16T14:52:48;5.70;;;1.70;;
8268;SDS011;4174;48.304;16.364;2023-01-16T14:59:03;5.82;;;1.90;;
8268;SDS011;4174;48.304;16.364;2023-01-16T15:05:07;6.22;;;1.90;;
8268;SDS011;4174;48.304;16.364;2023-01-16T15:11:20;5.40;;;1.90;;
8268;SDS011;4174;48.304;16.364;2023-01-16T15:17:35;7.10;;;2.40;;
8268;SDS011;4174;48.304;16.364;2023-01-16T15:23:43;8.47;;;2.50;;
8268;SDS011;4174;48.304;16.364;2023-01-16T15:29:51;6.40;;;2.40;;
8268;SDS011;4174;48.304;16.364;2023-01-16T15:35:56;7.90;;;2.90;;
8268;SDS011;4174;48.304;16.364;2023-01-16T15:42:02;7.78;;;2.62;;
8268;SDS011;4174;48.304;16.364;2023-01-16T15:48:31;7.73;;;2.50;;
8268;SDS011;4174;48.304;16.364;2023-01-16T15:54:37;8.00;;;2.63;;
8268;SDS011;4174;48.304;16.364;2023-01-16T16:00:40;7.50;;;2.83;;
8268;SDS011;4174;48.304;16.364;2023-01-16T16:06:44;9.80;;;3.50;;
8268;SDS011;4174;48.304;16.364;2023-01-16T16:12:47;8.90;;;3.10;;
8268;SDS011;4174;48.304;16.364;2023-01-16T16:18:53;8.38;;;3.17;;
8268;SDS011;4174;48.304;16.364;2023-01-16T16:24:56;9.00;;;3.33;;
8268;SDS011;4174;48.304;16.364;2023-01-16T16:31:02;11.10;;;4.10;;
8268;SDS011;4174;48.304;16.364;2023-01-16T16:37:04;8.90;;;3.42;;
8268;SDS011;4174;48.304;16.364;2023-01-16T16:43:08;7.83;;;2.90;;
8268;SDS011;4174;48.304;16.364;2023-01-16T16:55:33;5.90;;;2.00;;
8268;SDS011;4174;48.304;16.364;2023-01-16T17:01:37;6.30;;;2.05;;
8268;SDS011;4174;48.304;16.364;2023-01-16T17:07:40;6.57;;;2.30;;
8268;SDS011;4174;48.304;16.364;2023-01-16T17:13:42;6.73;;;2.27;;
8268;SDS011;4174;48.304;16.364;2023-01-16T17:19:45;6.70;;;2.20;;
8268;SDS011;4174;48.304;16.364;2023-01-16T17:25:49;7.23;;;2.63;;
8268;SDS011;4174;48.304;16.364;2023-01-16T17:31:52;6.00;;;2.10;;
8268;SDS011;4174;48.304;16.364;2023-01-16T17:37:56;5.70;;;1.87;;
8268;SDS011;4174;48.304;16.364;2023-01-16T17:43:59;7.23;;;2.50;;
8268;SDS011;4174;48.304;16.364;2023-01-16T17:50:09;7.07;;;2.17;;
8268;SDS011;4174;48.304;16.364;2023-01-16T17:56:19;6.63;;;2.30;;
8268;SDS011;4174;48.304;16.364;2023-01-16T18:02:22;6.50;;;2.40;;
8268;SDS011;4174;48.304;16.364;2023-01-16T18:08:26;7.00;;;2.17;;
8268;SDS011;4174;48.304;16.364;2023-01-16T18:14:30;6.10;;;1.90;;
8268;SDS011;4174;48.304;16.364;2023-01-16T18:20:39;8.10;;;2.80;;
8268;SDS011;4174;48.304;16.364;2023-01-16T18:26:43;7.77;;;2.83;;
8268;SDS011;4174;48.304;16.364;2023-01-16T18:32:46;6.63;;;2.33;;
8268;SDS011;4174;48.304;16.364;2023-01-16T18:38:50;11.30;;;4.30;;
8268;SDS011;4174;48.304;16.364;2023-01-16T18:44:59;7.40;;;3.08;;
8268;SDS011;4174;48.304;16.364;2023-01-16T18:51:09;9.55;;;3.60;;
8268;SDS011;4174;48.304;16.364;2023-01-16T18:57:17;8.17;;;2.97;;
8268;SDS011;4174;48.304;16.364;2023-01-16T19:03:25;9.10;;;3.60;;
8268;SDS011;4174;48.304;16.364;2023-01-16T19:09:28;9.30;;;3.67;;
8268;SDS011;4174;48.304;16.364;2023-01-16T19:15:31;7.90;;;2.90;;
8268;SDS011;4174;48.304;16.364;2023-01-16T19:21:34;8.20;;;3.10;;
8268;SDS011;4174;48.304;16.364;2023-01-16T19:27:39;9.37;;;3.33;;
8268;SDS011;4174;48.304;16.364;2023-01-16T19:33:42;8.30;;;2.90;;
8268;SDS011;4174;48.304;16.364;2023-01-16T19:39:46;8.47;;;3.13;;
8268;SDS011;4174;48.304;16.364;2023-01-16T19:45:49;9.87;;;3.47;;
8268;SDS011;4174;48.304;16.364;2023-01-16T19:51:58;8.18;;;3.40;;
8268;SDS011;4174;48.304;16.364;2023-01-16T19:58:02;7.63;;;2.90;;
8268;SDS011;4174;48.304;16.364;2023-01-16T20:04:06;8.40;;;3.10;;
8268;SDS011;4174;48.304;16.364;2023-01-16T20:10:12;8.48;;;3.00;;
8268;SDS011;4174;48.304;16.364;2023-01-16T20:16:16;9.38;;;3.00;;
8268;SDS011;4174;48.304;16.364;2023-01-16T20:22:20;9.97;;;3.30;;
8268;SDS011;4174;48.304;16.364;2023-01-16T20:28:23;9.83;;;3.50;;
8268;SDS011;4174;48.304;16.364;2023-01-16T20:34:28;10.95;;;4.00;;
8268;SDS011;4174;48.304;16.364;2023-01-16T20:40:32;9.65;;;3.75;;
8268;SDS011;4174;48.304;16.364;2023-01-16T20:46:36;8.63;;;3.10;;
8268;SDS011;4174;48.304;16.364;2023-01-16T20:52:39;9.00;;;3.30;;
8268;SDS011;4174;48.304;16.364;2023-01-16T20:58:42;8.90;;;3.10;;
8268;SDS011;4174;48.304;16.364;2023-01-16T21:04:46;8.40;;;2.93;;
8268;SDS011;4174;48.304;16.364;2023-01-16T21:10:50;9.18;;;3.37;;
8268;SDS011;4174;48.304;16.364;2023-01-16T21:16:53;9.65;;;3.67;;
8268;SDS011;4174;48.304;16.364;2023-01-16T21:23:02;9.60;;;3.80;;
8268;SDS011;4174;48.304;16.364;2023-01-16T21:29:05;10.57;;;3.77;;
8268;SDS011;4174;48.304;16.364;2023-01-16T21:35:09;9.67;;;3.93;;
8268;SDS011;4174;48.304;16.364;2023-01-16T21:41:11;9.68;;;3.60;;
8268;SDS011;4174;48.304;16.364;2023-01-16T21:47:13;9.23;;;3.50;;
8268;SDS011;4174;48.304;16.364;2023-01-16T21:53:15;9.77;;;4.22;;
8268;SDS011;4174;48.304;16.364;2023-01-16T21:59:18;10.90;;;3.90;;
8268;SDS011;4174;48.304;16.364;2023-01-16T22:05:23;10.40;;;4.33;;
8268;SDS011;4174;48.304;16.364;2023-01-16T22:11:26;10.38;;;3.80;;
8268;SDS011;4174;48.304;16.364;2023-01-16T22:17:35;10.40;;;3.70;;
8268;SDS011;4174;48.304;16.364;2023-01-16T22:23:43;7.47;;;2.73;;
8268;SDS011;4174;48.304;16.364;2023-01-16T22:29:47;7.53;;;2.50;;
8268;SDS011;4174;48.304;16.364;2023-01-16T22:35:55;6.93;;;2.40;;
8268;SDS011;4174;48.304;16.364;2023-01-16T22:42:01;8.37;;;2.47;;
8268;SDS011;4174;48.304;16.364;2023-01-16T22:48:04;6.10;;;2.13;;
8268;SDS011;4174;48.304;16.364;2023-01-16T22:54:09;6.03;;;2.03;;
8268;SDS011;4174;48.304;16.364;2023-01-16T23:00:15;6.50;;;2.25;;
8268;SDS011;4174;48.304;16.364;2023-01-16T23:06:20;6.47;;;2.40;;
8268;SDS011;4174;48.304;16.364;2023-01-16T23:12:22;7.27;;;2.30;;
8268;SDS011;4174;48.304;16.364;2023-01-16T23:18:27;6.50;;;2.30;;
8268;SDS011;4174;48.304;16.364;2023-01-16T23:24:31;7.07;;;2.40;;
8268;SDS011;4174;48.304;16.364;2023-01-16T23:30:34;7.62;;;2.78;;
8268;SDS011;4174;48.304;16.364;2023-01-16T23:36:38;6.97;;;2.70;;
8268;SDS011;4174;48.304;16.364;2023-01-16T23:42:41;8.60;;;3.00;;
8268;SDS011;4174;48.304;16.364;2023-01-16T23:48:50;7.77;;;2.80;;
8268;SDS011;4174;48.304;16.364;2023-01-16T23:54:54;7.73;;;2.80;;
